map of YLW home
YLW - Airport
Location
City:  Kelowna, British Columbia, Canada
Name:Kelowna International Airport
ICAO:CYLW
IATA:YLW

Details
Type:Airport (Airfield)
Use:Public/Civil, International (customs port of entry)
Latitude:4957'26"N (49.957222)
Longitude:11922'40"W (-119.377777)
Elevation:1420 ft (433 m)
Variation:15.63E (WMM2015 magnetic declination)
-0.15 annual change
Runways:1
Longest:8900 ft (2713 m), paved

Time
Time Zone:UTC-8 (DST-7)
Local Time:

Weather
METAR:CYLW 150020Z AUTO 14005KT 9SM SCT021 OVC030 02/M01 A3039 RMK SLP311
TAF:CYLW 141838Z 1419/1507 15005KT P6SM BKN030
TEMPO 1419/1507 BKN015
RMK FCST BASED ON AUTO OBS. NXT FCST BY 150100Z

Related Locations
Nearby:
Farthest:FTU: 10563 mi / 17000 km
Tolagnaro [Maurillac Airport (Fort Dauphin Airport)], MG

Find:

   beyond  
but within

Other Information
Maps:
NOTAMs:
Links:
Sources:

  
flag of Canada
flag of British Columbia
  

Airport Diagram

Airport diagram for YLW

Airport diagram PDF

Sectional Chart

Flight Planning
at skyvector.com

Satellite Image

Google Maps Satellite view

 

Copyright © 2004-2017 Karl L. Swartz. All rights reserved.
The Great Circle Mapper name and logo are trademarks of the Great Circle Mapper.
All other trademarks mentioned herein belong to their respective owners.
Please see credits for attibutions and further copyright information.

  Follow gcmap on Facebook Follow gcmap on Twitter Follow gcmap on Google+ GCmap on LinkedIn

hCard Microformat

Geo Microformat